Time;durP1;ratioP1;P1;durP2;ratioP2;P2;SDS_P1;SDS_P2;PMS_P1;PMS_P2;Temp;Humidity;BMP_temperature;BMP_pressure;BME280_temperature;BME280_humidity;BME280_pressure;Samples;Min_cycle;Max_cycle;Signal;HPM_P1;HPM_P2
2023/02/03 00:00:51;;;;;;;32.20;18.40;;;;;;;4.72;59.25;100264.59;107632;1283;1002830;-61
2023/02/03 00:03:19;;;;;;;39.20;22.30;;;;;;;4.72;59.17;100264.05;108320;1283;22001;-61
2023/02/03 00:05:46;;;;;;;37.00;22.10;;;;;;;4.69;59.35;100261.24;107634;1283;1002209;-62
2023/02/03 00:08:12;;;;;;;28.90;17.00;;;;;;;4.67;59.23;100264.35;108308;1283;21989;-68
2023/02/03 00:10:39;;;;;;;22.10;14.90;;;;;;;4.67;59.31;100264.35;108206;1283;21987;-62
2023/02/03 00:13:05;;;;;;;24.60;15.50;;;;;;;4.68;59.28;100264.01;108132;1283;21988;-63
2023/02/03 00:15:31;;;;;;;30.30;17.60;;;;;;;4.68;59.21;100262.45;108345;1283;21993;-68
2023/02/03 00:17:57;;;;;;;26.60;16.50;;;;;;;4.60;59.16;100262.20;108346;1283;21989;-68
2023/02/03 00:20:23;;;;;;;27.00;17.70;;;;;;;4.47;59.43;100264.67;108336;1283;21988;-68
2023/02/03 00:22:48;;;;;;;27.00;15.10;;;;;;;4.46;59.54;100267.96;108342;1283;21973;-68
2023/02/03 00:25:14;;;;;;;25.60;15.80;;;;;;;4.45;59.36;100269.16;108411;1283;21983;-68
2023/02/03 00:27:41;;;;;;;27.40;16.60;;;;;;;4.44;59.33;100270.02;108413;1283;21984;-62
2023/02/03 00:30:07;;;;;;;31.80;18.00;;;;;;;4.44;59.21;100271.23;108320;1283;21986;-61
2023/02/03 00:32:33;;;;;;;29.90;17.40;;;;;;;4.45;59.22;100272.98;107628;1283;1002774;-62
2023/02/03 00:34:59;;;;;;;29.40;16.50;;;;;;;4.40;58.69;100269.98;108342;1283;21987;-68
2023/02/03 00:37:25;;;;;;;25.20;15.00;;;;;;;4.27;58.05;100267.23;108352;1283;21978;-67
2023/02/03 00:39:51;;;;;;;25.30;16.00;;;;;;;4.17;58.00;100266.59;108331;1283;21993;-61
2023/02/03 00:42:17;;;;;;;27.80;16.70;;;;;;;4.08;58.10;100264.23;108346;1283;21992;-67
2023/02/03 00:44:43;;;;;;;26.90;17.10;;;;;;;4.05;58.39;100263.66;108402;1283;21983;-61
2023/02/03 00:47:08;;;;;;;29.80;17.70;;;;;;;4.04;58.46;100265.73;108358;1283;22447;-68
2023/02/03 00:49:34;;;;;;;28.80;16.60;;;;;;;4.05;58.56;100268.52;108374;1283;21990;-63
2023/02/03 00:52:00;;;;;;;26.60;15.60;;;;;;;4.05;58.59;100269.57;108338;1283;22004;-63
2023/02/03 00:54:26;;;;;;;29.60;16.40;;;;;;;4.02;58.20;100271.09;107612;1283;1002751;-67
2023/02/03 00:56:51;;;;;;;26.40;14.60;;;;;;;3.91;57.54;100271.65;108323;1283;21999;-62
2023/02/03 00:59:17;;;;;;;24.30;13.80;;;;;;;3.76;57.24;100269.73;108388;1283;21987;-62
2023/02/03 01:01:43;;;;;;;25.70;15.60;;;;;;;3.67;57.17;100271.33;108387;1283;21993;-63
2023/02/03 01:04:09;;;;;;;24.50;15.80;;;;;;;3.60;57.41;100265.33;108330;1283;22049;-67
2023/02/03 01:06:34;;;;;;;26.00;15.70;;;;;;;3.58;57.66;100266.85;108373;1283;22008;-63
2023/02/03 01:09:01;;;;;;;26.10;15.40;;;;;;;3.56;57.84;100267.16;108322;1283;21988;-67
2023/02/03 01:11:27;;;;;;;29.00;16.80;;;;;;;3.53;57.96;100269.05;108327;1283;22027;-67
2023/02/03 01:13:54;;;;;;;29.10;16.70;;;;;;;3.54;58.05;100267.48;108348;1283;22043;-61
2023/02/03 01:16:20;;;;;;;29.50;15.00;;;;;;;3.57;58.27;100263.89;107619;1283;1003083;-67
2023/02/03 01:18:46;;;;;;;24.10;14.20;;;;;;;3.60;58.32;100264.45;108374;1283;23743;-67
2023/02/03 01:21:14;;;;;;;23.40;14.40;;;;;;;3.65;58.43;100263.48;108313;1283;21988;-63
2023/02/03 01:23:40;;;;;;;21.50;13.30;;;;;;;3.68;58.44;100264.76;108259;1284;21988;-61
2023/02/03 01:26:12;;;;;;;24.30;14.30;;;;;;;3.71;58.51;100267.73;108244;1284;21963;-67
2023/02/03 01:28:38;;;;;;;21.70;12.50;;;;;;;3.73;58.51;100268.13;107452;1284;1002139;-67
2023/02/03 01:31:09;;;;;;;23.60;14.60;;;;;;;3.73;58.54;100270.55;107467;1284;1002333;-62
2023/02/03 01:33:35;;;;;;;21.80;12.40;;;;;;;3.73;58.34;100273.66;108268;1284;21980;-66
2023/02/03 01:36:01;;;;;;;21.50;13.80;;;;;;;3.67;58.07;100275.67;108225;1284;22057;-69
2023/02/03 01:38:27;;;;;;;21.60;13.00;;;;;;;3.63;58.11;100274.57;108234;1278;21982;-66
2023/02/03 01:40:52;;;;;;;24.60;14.50;;;;;;;3.61;58.07;100272.11;108292;1284;21988;-60
2023/02/03 01:43:32;;;;;;;22.50;13.80;;;;;;;3.61;57.94;100269.16;108238;1284;21991;-60
2023/02/03 01:45:59;;;;;;;23.20;14.00;;;;;;;3.59;57.95;100272.42;108259;1284;23717;-61
2023/02/03 01:48:25;;;;;;;20.20;12.00;;;;;;;3.58;58.09;100274.32;108335;1284;23907;-61
2023/02/03 01:50:52;;;;;;;24.30;13.60;;;;;;;3.58;58.09;100274.84;108232;1284;21990;-61
2023/02/03 01:53:17;;;;;;;22.20;12.70;;;;;;;3.59;57.90;100276.05;108227;1284;22450;-66
2023/02/03 01:55:45;;;;;;;24.50;14.60;;;;;;;3.59;57.96;100276.42;108246;1284;21986;-61
2023/02/03 01:58:12;;;;;;;22.30;14.10;;;;;;;3.58;58.08;100276.92;108305;1284;22000;-66
2023/02/03 02:00:38;;;;;;;24.00;13.30;;;;;;;3.57;57.90;100276.75;108167;1284;21984;-61
2023/02/03 02:03:04;;;;;;;24.60;14.30;;;;;;;3.57;57.77;100278.14;108173;1284;21989;-61
2023/02/03 02:05:53;;;;;;;27.50;15.90;;;;;;;3.56;57.62;100285.04;107474;1284;1002364;-66
2023/02/03 02:08:21;;;;;;;25.20;15.00;;;;;;;3.47;57.39;100298.27;107423;1284;1002246;-66
2023/02/03 02:10:47;;;;;;;24.00;14.60;;;;;;;3.39;57.49;100292.42;108197;1284;21991;-61
2023/02/03 02:13:13;;;;;;;25.90;16.20;;;;;;;3.36;57.91;100299.85;108153;1284;23060;-67
2023/02/03 02:15:57;;;;;;;25.60;15.30;;;;;;;3.38;58.68;100302.13;108294;1284;21998;-67
2023/02/03 02:18:29;;;;;;;24.60;14.90;;;;;;;3.45;59.44;100304.66;107474;1284;1002606;-67
2023/02/03 02:21:11;;;;;;;21.50;13.20;;;;;;;3.54;59.86;100307.73;108272;1277;21983;-67
2023/02/03 02:24:03;;;;;;;23.80;14.40;;;;;;;3.65;59.89;100311.55;107645;1283;1002299;-62
2023/02/03 02:27:06;;;;;;;22.30;14.00;;;;;;;3.76;60.06;100317.61;108365;1283;21977;-61
2023/02/03 02:29:50;;;;;;;26.80;15.50;;;;;;;3.84;60.03;100322.07;108331;1283;21980;-62
2023/02/03 02:32:34;;;;;;;21.70;12.70;;;;;;;3.89;59.95;100328.40;108346;1283;21999;-61
2023/02/03 02:35:11;;;;;;;19.60;12.00;;;;;;;3.95;60.17;100328.48;108330;1283;21983;-62
2023/02/03 02:37:44;;;;;;;20.10;11.70;;;;;;;3.98;60.14;100329.73;108422;1283;21985;-61
2023/02/03 02:40:13;;;;;;;17.80;11.10;;;;;;;4.01;60.64;100332.71;108353;1282;23058;-66
2023/02/03 02:43:07;;;;;;;18.90;12.30;;;;;;;4.07;60.71;100334.54;108427;1283;21991;-62
2023/02/03 02:45:52;;;;;;;21.20;12.40;;;;;;;4.14;60.59;100340.89;107664;1283;1002073;-61
2023/02/03 02:48:48;;;;;;;19.90;11.30;;;;;;;4.21;60.43;100342.18;107559;1283;1002375;-66
2023/02/03 02:51:14;;;;;;;18.50;11.60;;;;;;;4.26;60.31;100338.60;107587;1283;1004017;-66
2023/02/03 02:53:45;;;;;;;19.50;11.90;;;;;;;4.27;60.20;100337.75;108157;1283;21986;-61
2023/02/03 02:56:11;;;;;;;20.90;12.30;;;;;;;4.28;60.42;100334.98;108323;1283;21994;-65
2023/02/03 02:58:37;;;;;;;20.90;13.10;;;;;;;4.31;60.39;100331.02;108129;1283;21984;-61
2023/02/03 03:01:04;;;;;;;18.20;12.40;;;;;;;4.34;60.54;100329.69;108085;1283;21984;-65
2023/02/03 03:03:32;;;;;;;17.90;11.40;;;;;;;4.39;60.61;100332.70;108168;1283;23736;-61
2023/02/03 03:06:02;;;;;;;18.40;11.30;;;;;;;4.39;60.41;100334.09;108399;1283;21986;-64
2023/02/03 03:08:41;;;;;;;;;;;;;;;4.41;60.17;100336.37;108373;1283;22081;-65
2023/02/03 03:11:07;;;;;;;20.30;11.70;;;;;;;4.37;59.93;100335.64;107283;1283;1002487;-66
2023/02/03 03:13:48;;;;;;;19.00;11.80;;;;;;;4.35;59.89;100334.73;108329;1283;21988;-61
2023/02/03 03:16:14;;;;;;;19.80;11.70;;;;;;;4.30;59.99;100341.96;108372;1283;21983;-66
2023/02/03 03:18:48;;;;;;;20.50;12.60;;;;;;;4.24;59.94;100343.62;108347;1283;21982;-66
2023/02/03 03:21:19;;;;;;;18.80;12.00;;;;;;;4.17;60.21;100350.50;108322;1283;21985;-61
2023/02/03 03:23:46;;;;;;;22.00;13.30;;;;;;;3.95;61.40;100355.04;108300;1284;21983;-61
2023/02/03 03:26:19;;;;;;;18.40;12.30;;;;;;;3.87;62.45;100351.45;108330;1284;21983;-61
2023/02/03 03:28:53;;;;;;;19.40;12.20;;;;;;;4.15;62.12;100350.45;108269;1284;22753;-61
2023/02/03 03:31:19;;;;;;;23.50;13.10;;;;;;;4.34;61.59;100349.83;108230;1284;21980;-62
2023/02/03 03:33:45;;;;;;;22.50;14.50;;;;;;;4.39;61.18;100349.89;107394;1284;1002411;-61
2023/02/03 03:36:24;;;;;;;19.70;12.40;;;;;;;4.45;61.34;100348.23;108229;1284;22025;-62
2023/02/03 03:39:13;;;;;;;20.90;12.80;;;;;;;4.50;61.43;100343.77;108289;1284;21973;-66
2023/02/03 03:42:03;;;;;;;18.90;12.10;;;;;;;4.63;61.21;100345.31;108209;1284;21991;-66
2023/02/03 03:44:33;;;;;;;19.90;11.80;;;;;;;4.71;60.76;100339.84;108205;1284;22283;-65
2023/02/03 03:47:05;;;;;;;;;;;;;;;4.73;61.16;100345.94;108248;1284;21968;-61
2023/02/03 03:49:31;;;;;;;20.90;12.90;;;;;;;4.77;61.32;100343.39;108290;1283;21993;-66
2023/02/03 03:51:59;;;;;;;23.00;13.50;;;;;;;4.82;61.37;100346.73;108349;1283;22001;-66
2023/02/03 03:54:25;;;;;;;24.60;15.10;;;;;;;4.83;61.49;100349.35;108176;1283;23790;-66
2023/02/03 03:57:14;;;;;;;22.50;14.30;;;;;;;4.89;61.29;100350.98;108105;1283;22018;-62
2023/02/03 03:59:41;;;;;;;22.70;14.50;;;;;;;4.90;61.53;100352.20;108050;1283;21990;-62
2023/02/03 04:02:06;;;;;;;18.60;12.50;;;;;;;4.90;61.54;100357.09;108358;1283;21990;-66
2023/02/03 04:04:34;;;;;;;23.40;14.00;;;;;;;4.93;61.63;100360.06;108219;1283;21983;-65
2023/02/03 04:07:00;;;;;;;23.40;13.80;;;;;;;4.95;61.60;100361.81;108328;1283;21993;-65
2023/02/03 04:09:25;;;;;;;20.70;12.70;;;;;;;4.95;61.68;100358.52;108313;1283;21985;-65
2023/02/03 04:12:01;;;;;;;21.00;13.70;;;;;;;5.01;61.38;100353.73;107280;1283;1002200;-65
2023/02/03 04:14:29;;;;;;;24.50;14.80;;;;;;;5.01;60.96;100349.72;108277;1280;21981;-62
2023/02/03 04:16:55;;;;;;;21.50;13.00;;;;;;;5.04;60.97;100346.45;108316;1281;21986;-66
2023/02/03 04:19:22;;;;;;;20.70;12.90;;;;;;;5.05;60.91;100345.95;108348;1283;22003;-62
2023/02/03 04:21:51;;;;;;;20.30;13.10;;;;;;;5.05;61.31;100347.68;108321;1283;21979;-62
2023/02/03 04:24:17;;;;;;;19.40;12.40;;;;;;;5.10;61.26;100346.83;108270;1283;21970;-62
2023/02/03 04:26:43;;;;;;;24.80;14.90;;;;;;;5.13;61.53;100349.30;108290;1283;22449;-66
2023/02/03 04:29:08;;;;;;;19.80;13.00;;;;;;;5.07;61.12;100349.08;108239;1283;21999;-62
2023/02/03 04:31:34;;;;;;;21.10;13.30;;;;;;;5.01;61.44;100350.41;108381;1283;23033;-63
2023/02/03 04:34:00;;;;;;;20.70;13.00;;;;;;;5.02;61.91;100350.23;108395;1283;22003;-66
2023/02/03 04:36:26;;;;;;;21.50;13.40;;;;;;;5.09;61.78;100348.05;107527;1283;1002486;-64
2023/02/03 04:38:51;;;;;;;19.40;12.70;;;;;;;5.10;61.95;100346.33;108298;1283;22158;-61
2023/02/03 04:41:17;;;;;;;19.60;12.10;;;;;;;5.17;61.95;100349.69;108268;1283;21994;-63
2023/02/03 04:43:43;;;;;;;18.00;12.30;;;;;;;5.21;62.31;100353.73;108283;1283;21981;-62
2023/02/03 04:46:09;;;;;;;20.70;12.30;;;;;;;5.28;62.46;100355.19;108295;1283;21975;-63
2023/02/03 04:48:35;;;;;;;19.50;12.30;;;;;;;5.34;62.16;100360.98;107545;1283;1002305;-66
2023/02/03 04:51:02;;;;;;;21.90;13.50;;;;;;;5.34;61.75;100367.92;108276;1271;22208;-63
2023/02/03 04:53:29;;;;;;;19.80;13.00;;;;;;;5.29;61.36;100368.59;108327;1283;21990;-65
2023/02/03 04:55:55;;;;;;;22.60;14.00;;;;;;;5.25;61.28;100366.47;108292;1281;21983;-66
2023/02/03 04:58:20;;;;;;;20.80;13.50;;;;;;;5.19;61.43;100367.28;108271;1283;21985;-66
2023/02/03 05:00:46;;;;;;;19.30;12.00;;;;;;;5.20;61.58;100367.47;108286;1283;21986;-62
2023/02/03 05:03:11;;;;;;;17.40;11.10;;;;;;;5.22;61.67;100369.76;108276;1283;21993;-64
2023/02/03 05:05:37;;;;;;;20.00;11.50;;;;;;;5.25;61.92;100372.38;108287;1283;21988;-66
2023/02/03 05:08:03;;;;;;;17.60;11.10;;;;;;;5.27;61.88;100372.77;108259;1283;21989;-64
2023/02/03 05:10:29;;;;;;;21.70;11.70;;;;;;;5.28;62.07;100372.42;108375;1283;21986;-62
2023/02/03 05:12:55;;;;;;;18.50;11.20;;;;;;;5.25;62.18;100371.87;108345;1283;22444;-66
2023/02/03 05:15:21;;;;;;;19.80;12.30;;;;;;;5.29;62.14;100368.42;108091;1283;21989;-66
2023/02/03 05:17:47;;;;;;;18.10;12.10;;;;;;;5.35;61.85;100365.69;108284;1271;21983;-62
2023/02/03 05:20:12;;;;;;;17.70;11.40;;;;;;;5.35;61.93;100366.90;108376;1283;21982;-64
2023/02/03 05:22:38;;;;;;;18.40;11.60;;;;;;;5.33;61.91;100370.02;108230;1283;22031;-68
2023/02/03 05:25:05;;;;;;;15.80;10.50;;;;;;;5.36;62.24;100372.13;108291;1283;21980;-63
2023/02/03 05:27:32;;;;;;;15.40;10.40;;;;;;;5.45;62.35;100376.91;108373;1283;21993;-63
2023/02/03 05:29:57;;;;;;;17.20;11.10;;;;;;;5.47;62.30;100383.20;108324;1283;21997;-64
2023/02/03 05:32:23;;;;;;;25.00;13.20;;;;;;;5.47;62.08;100384.59;108337;1283;21988;-68
2023/02/03 05:34:49;;;;;;;24.60;12.50;;;;;;;5.50;61.98;100384.27;108318;1283;21988;-66
2023/02/03 05:37:14;;;;;;;19.20;12.80;;;;;;;5.51;62.00;100387.92;108331;1283;21983;-67
2023/02/03 05:39:40;;;;;;;22.60;13.60;;;;;;;5.52;62.10;100391.08;108343;1283;22100;-65
2023/02/03 05:42:06;;;;;;;19.60;12.60;;;;;;;5.49;61.80;100393.50;108361;1283;22114;-65
2023/02/03 05:44:32;;;;;;;21.70;12.70;;;;;;;5.46;61.83;100392.94;108337;1283;21983;-62
2023/02/03 05:46:58;;;;;;;21.70;12.10;;;;;;;5.47;62.22;100395.21;108336;1283;21986;-65
2023/02/03 05:49:24;;;;;;;20.30;12.50;;;;;;;5.51;62.25;100395.94;108360;1283;21982;-62
2023/02/03 05:51:50;;;;;;;20.50;13.20;;;;;;;5.53;62.36;100399.60;107590;1283;1002376;-65
2023/02/03 05:54:16;;;;;;;19.20;12.40;;;;;;;5.58;63.08;100402.26;108347;1283;21986;-61
2023/02/03 05:56:42;;;;;;;19.90;12.50;;;;;;;5.65;63.03;100405.45;108342;1283;21986;-63
2023/02/03 05:59:08;;;;;;;18.90;12.60;;;;;;;5.72;63.40;100408.30;108354;1283;21987;-66
2023/02/03 06:01:34;;;;;;;18.70;12.00;;;;;;;5.82;63.65;100412.73;108348;1282;21985;-67
2023/02/03 06:04:01;;;;;;;19.00;12.20;;;;;;;5.91;63.75;100412.98;108386;1283;21984;-68
2023/02/03 06:06:32;;;;;;;20.00;13.30;;;;;;;5.99;63.75;100414.96;108361;1283;23005;-63
2023/02/03 06:09:05;;;;;;;20.70;12.30;;;;;;;6.05;63.71;100419.89;108324;1283;21993;-63
2023/02/03 06:11:32;;;;;;;21.00;13.00;;;;;;;6.12;63.99;100423.77;108296;1283;22023;-63
2023/02/03 06:13:58;;;;;;;17.40;11.80;;;;;;;6.18;64.34;100425.90;108388;1283;22213;-63
2023/02/03 06:16:25;;;;;;;18.70;12.50;;;;;;;6.27;64.65;100425.79;108331;1283;22025;-69
2023/02/03 06:18:51;;;;;;;20.20;12.60;;;;;;;6.39;64.90;100428.30;108384;1271;21988;-63
2023/02/03 06:21:17;;;;;;;19.20;12.10;;;;;;;6.51;65.10;100432.02;108410;1283;22791;-70
2023/02/03 06:23:43;;;;;;;19.60;13.10;;;;;;;6.61;65.24;100433.29;107551;1283;1002665;-63
2023/02/03 06:26:08;;;;;;;18.30;12.00;;;;;;;6.68;65.28;100436.11;108299;1283;21984;-64
2023/02/03 06:28:37;;;;;;;20.60;13.10;;;;;;;6.77;65.51;100435.63;108316;1283;21988;-70
2023/02/03 06:31:03;;;;;;;22.40;12.90;;;;;;;6.84;65.34;100437.05;108341;1281;22500;-63
2023/02/03 06:33:30;;;;;;;21.70;13.80;;;;;;;6.89;65.36;100443.70;108312;1283;21976;-64
2023/02/03 06:35:56;;;;;;;19.70;13.50;;;;;;;6.92;65.23;100444.75;108368;1270;21993;-70
2023/02/03 06:38:22;;;;;;;20.20;12.90;;;;;;;6.95;65.10;100447.73;108268;1283;21981;-71
2023/02/03 06:40:48;;;;;;;19.40;13.30;;;;;;;6.98;65.07;100447.76;108282;1283;21985;-63
2023/02/03 06:43:14;;;;;;;19.50;12.90;;;;;;;7.01;64.93;100447.41;108377;1281;21984;-70
2023/02/03 06:45:40;;;;;;;19.60;12.70;;;;;;;7.05;65.00;100450.22;108325;1283;21995;-70
2023/02/03 06:48:06;;;;;;;19.70;13.20;;;;;;;7.09;65.11;100452.48;108322;1280;24325;-70
2023/02/03 06:50:33;;;;;;;22.20;14.00;;;;;;;7.10;64.99;100449.35;108293;1282;22154;-70
2023/02/03 06:52:59;;;;;;;19.30;12.80;;;;;;;7.08;65.22;100451.79;107620;1283;1002345;-66
2023/02/03 06:55:25;;;;;;;18.70;12.10;;;;;;;7.12;65.32;100452.67;108381;1283;21982;-70
2023/02/03 06:57:50;;;;;;;17.30;12.10;;;;;;;7.17;65.46;100459.32;108422;1281;21990;-69
2023/02/03 07:00:18;;;;;;;19.90;13.50;;;;;;;7.22;65.66;100461.95;108374;1283;23472;-64
2023/02/03 07:02:44;;;;;;;22.20;14.50;;;;;;;7.26;65.75;100462.66;108423;1283;21981;-65
2023/02/03 07:05:09;;;;;;;21.80;13.60;;;;;;;7.31;65.92;100458.99;108369;1279;21996;-63
2023/02/03 07:07:37;;;;;;;20.60;13.70;;;;;;;7.37;66.13;100458.15;108304;1283;21984;-64
2023/02/03 07:10:05;;;;;;;21.80;14.40;;;;;;;7.43;66.62;100457.64;108373;1283;23722;-69
2023/02/03 07:12:31;;;;;;;20.80;13.70;;;;;;;7.50;66.69;100464.63;108281;1283;21986;-64
2023/02/03 07:14:57;;;;;;;23.60;14.70;;;;;;;7.61;66.59;100460.63;108310;1283;22098;-65
2023/02/03 07:17:23;;;;;;;22.80;14.70;;;;;;;7.69;66.57;100461.86;107620;1283;1002494;-69
2023/02/03 07:19:49;;;;;;;20.00;13.80;;;;;;;7.76;66.92;100466.59;108325;1283;24498;-69
2023/02/03 07:22:14;;;;;;;21.70;13.70;;;;;;;7.86;66.82;100469.05;108240;1283;21988;-66
2023/02/03 07:24:40;;;;;;;20.70;13.70;;;;;;;7.91;66.94;100470.09;108199;1284;21973;-64
2023/02/03 07:27:07;;;;;;;22.10;14.40;;;;;;;7.94;66.73;100472.36;108193;1284;21993;-65
2023/02/03 07:29:34;;;;;;;20.50;14.30;;;;;;;7.99;66.40;100470.95;108217;1284;23441;-70
2023/02/03 07:32:01;;;;;;;21.40;14.00;;;;;;;8.01;66.24;100471.14;108191;1284;21992;-70
2023/02/03 07:34:27;;;;;;;19.00;13.20;;;;;;;8.04;66.22;100468.85;108220;1284;21980;-69
2023/02/03 07:36:53;;;;;;;18.50;12.90;;;;;;;8.10;66.38;100468.69;108296;1283;21986;-65
2023/02/03 07:39:20;;;;;;;22.30;14.10;;;;;;;8.15;66.28;100466.23;108339;1283;21989;-64
2023/02/03 07:41:46;;;;;;;21.90;14.30;;;;;;;8.13;66.86;100472.17;108303;1283;21988;-64
2023/02/03 07:44:13;;;;;;;21.80;13.70;;;;;;;8.13;67.10;100476.38;108311;1279;21986;-64
2023/02/03 07:47:01;;;;;;;19.20;12.90;;;;;;;8.18;66.90;100478.30;108050;1283;21999;-64
2023/02/03 07:49:27;;;;;;;21.10;13.00;;;;;;;8.24;66.85;100479.16;108311;1283;21984;-64
2023/02/03 07:51:53;;;;;;;17.90;12.20;;;;;;;8.25;66.96;100478.11;108305;1283;21987;-65
2023/02/03 07:54:19;;;;;;;19.60;13.10;;;;;;;8.24;67.43;100472.69;108303;1283;23733;-64
2023/02/03 07:56:45;;;;;;;22.60;13.30;;;;;;;8.24;67.50;100473.39;108039;1276;21977;-64
2023/02/03 07:59:12;;;;;;;20.60;12.30;;;;;;;8.25;67.77;100471.81;108322;1283;22002;-64
2023/02/03 09:08:59;;;;;;;23.10;16.30;;;;;;;4.98;100.00;100518.61;107472;1282;1002649;-64
2023/02/03 09:11:26;;;;;;;20.00;14.60;;;;;;;8.13;91.38;100503.27;108372;1282;21977;-72
2023/02/03 09:13:52;;;;;;;18.70;13.80;;;;;;;8.58;84.34;100501.16;108205;1284;22092;-74
2023/02/03 09:16:20;;;;;;;17.50;13.10;;;;;;;8.76;81.47;100503.58;108190;1284;21982;-64
2023/02/03 09:18:46;;;;;;;17.10;12.50;;;;;;;9.01;79.69;100502.79;108247;1284;23100;-75
2023/02/03 09:21:13;;;;;;;16.20;10.80;;;;;;;9.24;77.84;100502.52;107990;1282;382759;-65
2023/02/03 09:23:39;;;;;;;15.60;11.50;;;;;;;9.34;75.98;100498.79;108407;1282;21991;-70
2023/02/03 09:26:07;;;;;;;13.60;10.00;;;;;;;9.34;75.46;100496.86;108474;1282;21993;-73
2023/02/03 09:28:33;;;;;;;13.80;10.40;;;;;;;9.29;75.16;100493.21;108611;1282;22073;-74
2023/02/03 09:31:00;;;;;;;13.90;10.30;;;;;;;9.33;75.25;100487.41;108501;1279;21980;-74
2023/02/03 09:33:26;;;;;;;13.90;10.40;;;;;;;9.37;74.77;100486.52;108516;1281;22048;-71
2023/02/03 09:35:53;;;;;;;14.80;10.30;;;;;;;9.44;74.50;100485.08;108479;1281;21985;-74
2023/02/03 09:38:20;;;;;;;15.30;11.00;;;;;;;9.49;74.24;100483.82;108248;1283;23785;-65
2023/02/03 09:41:16;;;;;;;15.80;11.10;;;;;;;9.57;74.23;100478.52;108395;1282;21979;-66
2023/02/03 09:43:56;;;;;;;15.80;11.00;;;;;;;9.63;73.78;100475.48;108341;1279;21977;-72
2023/02/03 09:46:27;;;;;;;12.40;9.40;;;;;;;9.55;74.15;100479.23;108409;1280;22445;-71
2023/02/03 09:49:06;;;;;;;13.20;9.80;;;;;;;9.45;75.17;100477.36;108551;1281;21968;-64
2023/02/03 09:51:39;;;;;;;13.50;10.50;;;;;;;9.67;73.81;100475.64;108796;1269;21985;-72
2023/02/03 09:54:12;;;;;;;12.70;9.80;;;;;;;9.73;72.85;100473.48;108395;1280;21983;-73
2023/02/03 09:56:39;;;;;;;14.10;9.40;;;;;;;9.76;72.58;100476.80;108625;1281;22750;-75
2023/02/03 09:59:05;;;;;;;11.70;9.40;;;;;;;9.74;72.24;100475.60;108432;1278;23661;-65
2023/02/03 10:01:41;;;;;;;11.60;8.10;;;;;;;9.57;72.85;100478.86;108330;1282;22459;-72
2023/02/03 10:04:29;;;;;;;11.20;8.10;;;;;;;9.45;74.35;100481.75;108413;1280;21985;-64
2023/02/03 10:07:45;;;;;;;11.80;8.30;;;;;;;9.33;74.60;100477.41;108441;1281;21989;-64
2023/02/03 10:10:17;;;;;;;9.50;7.30;;;;;;;9.33;74.60;100478.83;108361;1282;21970;-72
2023/02/03 10:13:09;;;;;;;9.70;7.20;;;;;;;9.10;75.42;100477.73;108517;1279;23629;-65
2023/02/03 10:15:46;;;;;;;9.60;7.20;;;;;;;9.00;76.04;100479.70;108438;1282;21990;-73
2023/02/03 10:18:13;;;;;;;9.00;6.10;;;;;;;9.08;75.73;100474.92;108394;1280;21977;-65
2023/02/03 10:21:12;;;;;;;7.60;5.90;;;;;;;9.17;75.43;100472.62;108464;1279;21980;-73
2023/02/03 10:23:39;;;;;;;6.50;4.80;;;;;;;9.17;75.44;100471.05;108402;1280;21980;-64
2023/02/03 10:26:07;;;;;;;7.20;5.40;;;;;;;9.19;74.93;100465.08;108449;1276;21981;-64
2023/02/03 10:28:39;;;;;;;8.30;5.80;;;;;;;9.16;75.22;100462.11;108566;1282;21984;-74
2023/02/03 10:31:19;;;;;;;8.80;6.00;;;;;;;9.21;75.00;100463.49;108336;1281;24312;-73
2023/02/03 10:33:55;;;;;;;8.00;5.30;;;;;;;9.23;74.66;100466.45;108410;1281;23715;-74
2023/02/03 10:36:22;;;;;;;7.80;6.00;;;;;;;9.26;74.28;100466.27;108193;1282;22448;-64
2023/02/03 10:39:13;;;;;;;32.80;20.70;;;;;;;9.31;73.99;100466.23;108034;1281;21982;-73
2023/02/03 10:41:39;;;;;;;15.10;10.90;;;;;;;9.41;73.38;100466.88;108377;1281;21990;-64
2023/02/03 10:44:07;;;;;;;8.00;6.00;;;;;;;9.41;73.23;100466.53;108339;1269;21988;-64
2023/02/03 10:46:34;;;;;;;8.00;4.70;;;;;;;9.26;73.61;100460.66;108456;1282;21990;-64
2023/02/03 10:49:01;;;;;;;10.00;6.20;;;;;;;9.03;74.92;100459.73;108385;1281;21981;-73
2023/02/03 10:52:03;;;;;;;6.60;4.90;;;;;;;9.05;75.10;100460.77;108413;1280;23641;-74
2023/02/03 10:54:33;;;;;;;21.30;11.90;;;;;;;9.05;75.63;100461.48;108219;1281;21984;-64
2023/02/03 10:57:05;;;;;;;16.60;9.90;;;;;;;9.11;76.09;100463.71;108445;1269;22162;-74
2023/02/03 10:59:33;;;;;;;8.70;6.00;;;;;;;9.19;75.97;100462.27;108476;1281;24095;-74
2023/02/03 11:02:07;;;;;;;5.90;4.20;;;;;;;9.29;75.65;100464.85;108399;1281;22049;-74
2023/02/03 11:04:35;;;;;;;5.50;2.90;;;;;;;9.41;75.38;100467.23;108587;1281;22150;-64
2023/02/03 11:07:06;;;;;;;4.10;2.80;;;;;;;9.31;75.49;100461.50;108396;1281;23111;-64
2023/02/03 11:09:39;;;;;;;4.50;3.10;;;;;;;9.38;75.48;100463.75;108565;1282;21989;-74
2023/02/03 11:12:12;;;;;;;4.00;2.60;;;;;;;9.46;75.27;100462.47;108435;1282;21985;-65
2023/02/03 11:14:43;;;;;;;3.80;2.70;;;;;;;9.54;75.03;100455.41;108444;1281;23637;-65
2023/02/03 11:17:17;;;;;;;4.80;2.60;;;;;;;9.54;74.69;100456.98;108445;1269;21983;-64
2023/02/03 11:19:45;;;;;;;3.80;2.60;;;;;;;9.49;74.39;100459.83;108394;1281;22342;-66
2023/02/03 12:21:23;;;;;;;3.10;1.80;;;;;;;7.46;80.64;100467.34;107282;1289;548745;-62
2023/02/03 12:23:59;;;;;;;3.10;1.80;;;;;;;8.58;75.75;100462.86;107540;1294;21996;-62
2023/02/03 12:26:40;;;;;;;3.30;2.10;;;;;;;8.64;76.16;100455.85;107368;1282;22002;-75
2023/02/03 12:29:17;;;;;;;4.30;2.20;;;;;;;8.63;77.42;100453.05;107468;1294;23114;-61
2023/02/03 12:32:05;;;;;;;6.00;3.50;;;;;;;8.64;77.23;100453.40;107544;1294;21999;-75
2023/02/03 12:34:44;;;;;;;7.10;4.20;;;;;;;8.73;76.38;100456.52;107571;1292;207589;-75
2023/02/03 12:37:16;;;;;;;5.40;2.70;;;;;;;8.66;75.89;100461.45;107741;1292;22985;-75
2023/02/03 12:39:52;;;;;;;4.10;2.50;;;;;;;8.77;74.93;100464.91;107759;1292;21996;-76
2023/02/03 12:42:38;;;;;;;5.10;2.80;;;;;;;8.89;74.01;100462.41;107753;1289;22005;-76
2023/02/03 12:45:07;;;;;;;5.10;3.30;;;;;;;8.91;73.50;100461.70;107798;1292;22003;-75
2023/02/03 12:47:43;;;;;;;12.30;6.00;;;;;;;8.93;72.97;100465.54;107735;1278;22763;-76
2023/02/03 12:50:23;;;;;;;14.60;8.10;;;;;;;8.91;72.12;100465.55;107725;1292;22000;-76
2023/02/03 12:52:54;;;;;;;10.60;5.80;;;;;;;8.94;71.66;100466.58;107791;1291;22010;-76
2023/02/03 12:55:40;;;;;;;8.40;4.50;;;;;;;8.96;71.27;100466.23;107714;1291;22070;-76
2023/02/03 12:58:10;;;;;;;8.30;4.40;;;;;;;8.98;70.72;100463.60;107884;1291;21998;-63
2023/02/03 13:00:43;;;;;;;6.80;3.70;;;;;;;9.01;70.56;100467.27;107973;1291;24976;-63
2023/02/03 13:03:33;;;;;;;6.50;3.70;;;;;;;8.99;69.93;100467.80;107752;1291;21997;-63
2023/02/03 13:06:05;;;;;;;;;;;;;;;9.04;69.58;100461.12;107948;1291;22035;-79
2023/02/03 13:08:45;;;;;;;5.50;2.90;;;;;;;8.99;68.08;100462.02;107659;1291;22000;-78
2023/02/03 13:11:25;;;;;;;4.30;2.60;;;;;;;9.05;67.59;100461.81;107645;1291;22003;-64
2023/02/03 13:14:04;;;;;;;4.60;2.20;;;;;;;9.12;67.46;100467.55;107734;1291;24086;-78
2023/02/03 13:16:34;;;;;;;3.70;2.00;;;;;;;9.13;67.51;100469.83;107801;1291;22004;-64
2023/02/03 13:19:05;;;;;;;3.90;2.20;;;;;;;9.18;67.47;100472.80;108087;1291;21998;-64
2023/02/03 13:21:31;;;;;;;3.70;1.80;;;;;;;9.22;67.30;100470.32;108032;1291;22116;-76
2023/02/03 13:23:57;;;;;;;5.70;2.40;;;;;;;9.27;67.17;100472.74;108018;1289;22004;-76
2023/02/03 13:26:29;;;;;;;5.20;2.70;;;;;;;9.28;66.67;100471.34;107836;1290;21996;-64
2023/02/03 13:29:35;;;;;;;3.60;1.90;;;;;;;9.20;65.45;100470.48;107846;1292;22476;-75
2023/02/03 13:32:23;;;;;;;3.30;1.80;;;;;;;9.26;64.18;100471.34;107770;1286;22013;-62